sensor_id;sensor_type;location;lat;lon;timestamp;P1;durP1;ratioP1;P2;durP2;ratioP2
8564;SDS011;4320;51.498;6.556;2023-02-04T00:00:55;15.95;;;4.40;;
8564;SDS011;4320;51.498;6.556;2023-02-04T00:03:20;25.20;;;5.70;;
8564;SDS011;4320;51.498;6.556;2023-02-04T00:05:46;17.88;;;5.10;;
8564;SDS011;4320;51.498;6.556;2023-02-04T00:08:12;32.67;;;6.03;;
8564;SDS011;4320;51.498;6.556;2023-02-04T00:10:37;26.00;;;6.72;;
8564;SDS011;4320;51.498;6.556;2023-02-04T00:13:03;23.75;;;5.68;;
8564;SDS011;4320;51.498;6.556;2023-02-04T00:15:29;21.63;;;5.13;;
8564;SDS011;4320;51.498;6.556;2023-02-04T00:17:55;18.17;;;5.25;;
8564;SDS011;4320;51.498;6.556;2023-02-04T00:20:21;20.30;;;5.88;;
8564;SDS011;4320;51.498;6.556;2023-02-04T00:22:47;19.30;;;5.18;;
8564;SDS011;4320;51.498;6.556;2023-02-04T00:25:12;16.63;;;4.78;;
8564;SDS011;4320;51.498;6.556;2023-02-04T00:27:38;17.73;;;4.97;;
8564;SDS011;4320;51.498;6.556;2023-02-04T00:30:04;22.02;;;5.05;;
8564;SDS011;4320;51.498;6.556;2023-02-04T00:32:30;13.75;;;4.55;;
8564;SDS011;4320;51.498;6.556;2023-02-04T00:34:56;20.02;;;5.22;;
8564;SDS011;4320;51.498;6.556;2023-02-04T00:37:22;25.45;;;6.15;;
8564;SDS011;4320;51.498;6.556;2023-02-04T00:39:48;22.17;;;4.68;;
8564;SDS011;4320;51.498;6.556;2023-02-04T00:42:14;20.83;;;5.78;;
8564;SDS011;4320;51.498;6.556;2023-02-04T00:44:40;19.90;;;3.97;;
8564;SDS011;4320;51.498;6.556;2023-02-04T00:47:06;23.75;;;4.63;;
8564;SDS011;4320;51.498;6.556;2023-02-04T00:49:34;16.48;;;4.88;;
8564;SDS011;4320;51.498;6.556;2023-02-04T00:52:00;11.82;;;4.28;;
8564;SDS011;4320;51.498;6.556;2023-02-04T00:54:26;15.52;;;3.97;;
8564;SDS011;4320;51.498;6.556;2023-02-04T00:56:52;16.88;;;3.80;;
8564;SDS011;4320;51.498;6.556;2023-02-04T00:59:17;19.70;;;4.38;;
8564;SDS011;4320;51.498;6.556;2023-02-04T01:01:43;18.35;;;4.07;;
8564;SDS011;4320;51.498;6.556;2023-02-04T01:04:09;13.98;;;3.30;;
8564;SDS011;4320;51.498;6.556;2023-02-04T01:06:35;18.25;;;4.70;;
8564;SDS011;4320;51.498;6.556;2023-02-04T01:09:00;18.98;;;6.38;;
8564;SDS011;4320;51.498;6.556;2023-02-04T01:11:28;23.58;;;5.18;;
8564;SDS011;4320;51.498;6.556;2023-02-04T01:13:54;13.95;;;4.40;;
8564;SDS011;4320;51.498;6.556;2023-02-04T01:16:20;25.42;;;5.32;;
8564;SDS011;4320;51.498;6.556;2023-02-04T01:18:45;15.63;;;4.78;;
8564;SDS011;4320;51.498;6.556;2023-02-04T01:21:11;22.63;;;5.10;;
8564;SDS011;4320;51.498;6.556;2023-02-04T01:23:37;13.25;;;3.72;;
8564;SDS011;4320;51.498;6.556;2023-02-04T01:26:03;20.05;;;5.03;;
8564;SDS011;4320;51.498;6.556;2023-02-04T01:28:28;19.23;;;4.53;;
8564;SDS011;4320;51.498;6.556;2023-02-04T01:30:54;20.52;;;4.90;;
8564;SDS011;4320;51.498;6.556;2023-02-04T01:33:20;16.13;;;4.60;;
8564;SDS011;4320;51.498;6.556;2023-02-04T01:35:45;16.58;;;4.22;;
8564;SDS011;4320;51.498;6.556;2023-02-04T01:38:11;14.57;;;4.10;;
8564;SDS011;4320;51.498;6.556;2023-02-04T01:40:37;17.00;;;4.43;;
8564;SDS011;4320;51.498;6.556;2023-02-04T01:43:03;12.98;;;3.67;;
8564;SDS011;4320;51.498;6.556;2023-02-04T01:45:29;19.25;;;4.10;;
8564;SDS011;4320;51.498;6.556;2023-02-04T01:47:58;18.92;;;5.40;;
8564;SDS011;4320;51.498;6.556;2023-02-04T01:50:24;12.93;;;4.07;;
8564;SDS011;4320;51.498;6.556;2023-02-04T01:52:50;16.33;;;4.53;;
8564;SDS011;4320;51.498;6.556;2023-02-04T01:55:17;17.08;;;4.13;;
8564;SDS011;4320;51.498;6.556;2023-02-04T01:57:45;20.27;;;5.57;;
8564;SDS011;4320;51.498;6.556;2023-02-04T02:00:17;20.80;;;4.25;;
8564;SDS011;4320;51.498;6.556;2023-02-04T02:02:49;14.75;;;4.22;;
8564;SDS011;4320;51.498;6.556;2023-02-04T02:05:17;13.60;;;4.60;;
8564;SDS011;4320;51.498;6.556;2023-02-04T02:07:48;15.20;;;4.20;;
8564;SDS011;4320;51.498;6.556;2023-02-04T02:10:15;19.65;;;4.20;;
8564;SDS011;4320;51.498;6.556;2023-02-04T02:12:42;20.65;;;4.82;;
8564;SDS011;4320;51.498;6.556;2023-02-04T02:15:09;18.88;;;5.15;;
8564;SDS011;4320;51.498;6.556;2023-02-04T02:17:36;18.95;;;5.20;;
8564;SDS011;4320;51.498;6.556;2023-02-04T02:20:02;27.40;;;5.93;;
8564;SDS011;4320;51.498;6.556;2023-02-04T02:25:14;21.33;;;4.38;;
8564;SDS011;4320;51.498;6.556;2023-02-04T02:27:40;20.63;;;5.70;;
8564;SDS011;4320;51.498;6.556;2023-02-04T02:30:06;16.50;;;4.53;;
8564;SDS011;4320;51.498;6.556;2023-02-04T02:32:34;18.25;;;4.90;;
8564;SDS011;4320;51.498;6.556;2023-02-04T02:35:01;16.30;;;4.93;;
8564;SDS011;4320;51.498;6.556;2023-02-04T02:37:27;15.80;;;4.93;;
8564;SDS011;4320;51.498;6.556;2023-02-04T02:39:53;20.35;;;5.10;;
8564;SDS011;4320;51.498;6.556;2023-02-04T02:42:19;20.52;;;4.20;;
8564;SDS011;4320;51.498;6.556;2023-02-04T02:44:45;20.42;;;4.35;;
8564;SDS011;4320;51.498;6.556;2023-02-04T02:47:12;9.98;;;3.40;;
8564;SDS011;4320;51.498;6.556;2023-02-04T02:49:39;25.38;;;4.22;;
8564;SDS011;4320;51.498;6.556;2023-02-04T02:52:05;16.25;;;4.22;;
8564;SDS011;4320;51.498;6.556;2023-02-04T02:54:35;15.18;;;3.88;;
8564;SDS011;4320;51.498;6.556;2023-02-04T02:57:00;12.30;;;3.50;;
8564;SDS011;4320;51.498;6.556;2023-02-04T02:59:26;15.18;;;3.88;;
8564;SDS011;4320;51.498;6.556;2023-02-04T03:01:56;12.60;;;3.97;;
8564;SDS011;4320;51.498;6.556;2023-02-04T03:04:25;17.05;;;3.85;;
8564;SDS011;4320;51.498;6.556;2023-02-04T03:06:52;18.20;;;4.10;;
8564;SDS011;4320;51.498;6.556;2023-02-04T03:09:18;13.60;;;4.00;;
8564;SDS011;4320;51.498;6.556;2023-02-04T03:11:44;14.95;;;3.58;;
8564;SDS011;4320;51.498;6.556;2023-02-04T03:14:10;16.83;;;3.97;;
8564;SDS011;4320;51.498;6.556;2023-02-04T03:16:35;12.27;;;3.20;;
8564;SDS011;4320;51.498;6.556;2023-02-04T03:19:02;13.65;;;3.58;;
8564;SDS011;4320;51.498;6.556;2023-02-04T03:21:29;18.33;;;4.40;;
8564;SDS011;4320;51.498;6.556;2023-02-04T03:23:55;19.08;;;4.13;;
8564;SDS011;4320;51.498;6.556;2023-02-04T03:26:21;15.63;;;4.30;;
8564;SDS011;4320;51.498;6.556;2023-02-04T03:28:48;17.98;;;3.60;;
8564;SDS011;4320;51.498;6.556;2023-02-04T03:31:14;17.77;;;4.25;;
8564;SDS011;4320;51.498;6.556;2023-02-04T03:33:39;13.90;;;3.22;;
8564;SDS011;4320;51.498;6.556;2023-02-04T03:36:06;13.38;;;4.85;;
8564;SDS011;4320;51.498;6.556;2023-02-04T03:38:33;23.15;;;5.15;;
8564;SDS011;4320;51.498;6.556;2023-02-04T03:40:58;10.93;;;3.47;;
8564;SDS011;4320;51.498;6.556;2023-02-04T03:43:24;15.70;;;3.58;;
8564;SDS011;4320;51.498;6.556;2023-02-04T03:45:50;17.73;;;4.10;;
8564;SDS011;4320;51.498;6.556;2023-02-04T03:48:15;16.67;;;3.80;;
8564;SDS011;4320;51.498;6.556;2023-02-04T03:50:41;16.65;;;3.55;;
8564;SDS011;4320;51.498;6.556;2023-02-04T03:53:07;16.45;;;4.30;;
8564;SDS011;4320;51.498;6.556;2023-02-04T03:55:34;18.35;;;4.18;;
8564;SDS011;4320;51.498;6.556;2023-02-04T03:58:00;16.10;;;4.40;;
8564;SDS011;4320;51.498;6.556;2023-02-04T04:00:26;25.67;;;4.95;;
8564;SDS011;4320;51.498;6.556;2023-02-04T04:02:52;13.73;;;3.60;;
8564;SDS011;4320;51.498;6.556;2023-02-04T04:05:18;18.98;;;3.65;;
8564;SDS011;4320;51.498;6.556;2023-02-04T04:07:44;18.45;;;4.35;;
8564;SDS011;4320;51.498;6.556;2023-02-04T04:10:09;17.02;;;4.25;;
8564;SDS011;4320;51.498;6.556;2023-02-04T04:12:35;19.65;;;4.28;;
8564;SDS011;4320;51.498;6.556;2023-02-04T04:15:01;19.40;;;3.78;;
8564;SDS011;4320;51.498;6.556;2023-02-04T04:17:27;17.58;;;4.35;;
8564;SDS011;4320;51.498;6.556;2023-02-04T04:19:53;19.05;;;4.80;;
8564;SDS011;4320;51.498;6.556;2023-02-04T04:22:18;11.90;;;3.38;;
8564;SDS011;4320;51.498;6.556;2023-02-04T04:24:44;22.67;;;4.63;;
8564;SDS011;4320;51.498;6.556;2023-02-04T04:27:10;19.63;;;4.40;;
8564;SDS011;4320;51.498;6.556;2023-02-04T04:29:35;17.73;;;4.43;;
8564;SDS011;4320;51.498;6.556;2023-02-04T04:32:01;18.13;;;5.03;;
8564;SDS011;4320;51.498;6.556;2023-02-04T04:34:27;24.52;;;4.90;;
8564;SDS011;4320;51.498;6.556;2023-02-04T04:36:52;26.05;;;5.35;;
8564;SDS011;4320;51.498;6.556;2023-02-04T04:39:18;12.80;;;4.13;;
8564;SDS011;4320;51.498;6.556;2023-02-04T04:41:43;17.45;;;4.50;;
8564;SDS011;4320;51.498;6.556;2023-02-04T04:44:09;15.52;;;3.88;;
8564;SDS011;4320;51.498;6.556;2023-02-04T04:46:35;18.30;;;4.72;;
8564;SDS011;4320;51.498;6.556;2023-02-04T04:49:00;16.38;;;4.50;;
8564;SDS011;4320;51.498;6.556;2023-02-04T04:51:26;17.02;;;4.07;;
8564;SDS011;4320;51.498;6.556;2023-02-04T04:53:55;16.27;;;4.13;;
8564;SDS011;4320;51.498;6.556;2023-02-04T04:56:21;25.33;;;4.57;;
8564;SDS011;4320;51.498;6.556;2023-02-04T04:58:47;16.63;;;3.50;;
8564;SDS011;4320;51.498;6.556;2023-02-04T05:01:12;14.85;;;4.35;;
8564;SDS011;4320;51.498;6.556;2023-02-04T05:03:38;17.33;;;4.55;;
8564;SDS011;4320;51.498;6.556;2023-02-04T05:06:03;23.35;;;4.53;;
8564;SDS011;4320;51.498;6.556;2023-02-04T05:08:29;22.23;;;4.65;;
8564;SDS011;4320;51.498;6.556;2023-02-04T05:10:55;16.40;;;3.95;;
8564;SDS011;4320;51.498;6.556;2023-02-04T05:13:20;16.88;;;4.32;;
8564;SDS011;4320;51.498;6.556;2023-02-04T05:15:49;29.88;;;5.47;;
8564;SDS011;4320;51.498;6.556;2023-02-04T05:18:14;16.85;;;4.18;;
8564;SDS011;4320;51.498;6.556;2023-02-04T05:20:40;17.85;;;4.47;;
8564;SDS011;4320;51.498;6.556;2023-02-04T05:23:06;24.92;;;4.75;;
8564;SDS011;4320;51.498;6.556;2023-02-04T05:25:31;17.77;;;4.30;;
8564;SDS011;4320;51.498;6.556;2023-02-04T05:27:57;15.45;;;3.78;;
8564;SDS011;4320;51.498;6.556;2023-02-04T05:30:23;17.77;;;4.47;;
8564;SDS011;4320;51.498;6.556;2023-02-04T05:32:48;19.27;;;4.10;;
8564;SDS011;4320;51.498;6.556;2023-02-04T05:35:14;18.95;;;5.13;;
8564;SDS011;4320;51.498;6.556;2023-02-04T05:37:40;22.23;;;5.60;;
8564;SDS011;4320;51.498;6.556;2023-02-04T05:40:05;21.17;;;4.22;;
8564;SDS011;4320;51.498;6.556;2023-02-04T05:42:31;16.08;;;4.03;;
8564;SDS011;4320;51.498;6.556;2023-02-04T05:44:57;15.07;;;5.10;;
8564;SDS011;4320;51.498;6.556;2023-02-04T05:47:23;20.25;;;4.95;;
8564;SDS011;4320;51.498;6.556;2023-02-04T05:49:48;20.30;;;5.78;;
8564;SDS011;4320;51.498;6.556;2023-02-04T05:52:14;23.48;;;6.05;;
8564;SDS011;4320;51.498;6.556;2023-02-04T05:54:40;23.17;;;5.78;;
8564;SDS011;4320;51.498;6.556;2023-02-04T05:57:05;22.95;;;4.70;;
8564;SDS011;4320;51.498;6.556;2023-02-04T05:59:31;23.17;;;7.07;;
8564;SDS011;4320;51.498;6.556;2023-02-04T06:01:56;28.92;;;12.10;;
8564;SDS011;4320;51.498;6.556;2023-02-04T06:04:22;23.20;;;7.05;;
8564;SDS011;4320;51.498;6.556;2023-02-04T06:06:48;18.17;;;5.88;;
8564;SDS011;4320;51.498;6.556;2023-02-04T06:09:13;25.73;;;5.32;;
8564;SDS011;4320;51.498;6.556;2023-02-04T06:11:39;21.45;;;6.03;;
8564;SDS011;4320;51.498;6.556;2023-02-04T06:14:05;19.13;;;5.57;;
8564;SDS011;4320;51.498;6.556;2023-02-04T06:16:31;13.77;;;4.78;;
8564;SDS011;4320;51.498;6.556;2023-02-04T06:18:56;20.45;;;5.57;;
8564;SDS011;4320;51.498;6.556;2023-02-04T06:21:22;19.67;;;5.25;;
8564;SDS011;4320;51.498;6.556;2023-02-04T06:23:48;14.98;;;5.13;;
8564;SDS011;4320;51.498;6.556;2023-02-04T06:26:13;20.40;;;4.85;;
8564;SDS011;4320;51.498;6.556;2023-02-04T06:28:39;20.67;;;5.43;;
8564;SDS011;4320;51.498;6.556;2023-02-04T06:31:04;18.38;;;5.03;;
8564;SDS011;4320;51.498;6.556;2023-02-04T06:33:31;22.83;;;4.85;;
8564;SDS011;4320;51.498;6.556;2023-02-04T06:35:57;19.83;;;5.22;;
8564;SDS011;4320;51.498;6.556;2023-02-04T06:38:22;23.23;;;5.22;;
8564;SDS011;4320;51.498;6.556;2023-02-04T06:40:48;17.35;;;4.70;;
8564;SDS011;4320;51.498;6.556;2023-02-04T06:43:17;18.83;;;6.55;;
8564;SDS011;4320;51.498;6.556;2023-02-04T06:45:43;23.20;;;5.55;;
8564;SDS011;4320;51.498;6.556;2023-02-04T06:48:09;18.13;;;5.28;;
8564;SDS011;4320;51.498;6.556;2023-02-04T06:50:34;24.83;;;5.15;;
8564;SDS011;4320;51.498;6.556;2023-02-04T06:53:00;20.42;;;5.45;;
8564;SDS011;4320;51.498;6.556;2023-02-04T06:55:25;16.92;;;5.05;;
8564;SDS011;4320;51.498;6.556;2023-02-04T06:57:51;23.02;;;5.72;;
8564;SDS011;4320;51.498;6.556;2023-02-04T07:00:17;18.92;;;5.28;;
8564;SDS011;4320;51.498;6.556;2023-02-04T07:02:43;22.75;;;5.22;;
8564;SDS011;4320;51.498;6.556;2023-02-04T07:05:10;19.95;;;5.35;;
8564;SDS011;4320;51.498;6.556;2023-02-04T07:07:35;24.83;;;5.72;;
8564;SDS011;4320;51.498;6.556;2023-02-04T07:10:01;20.15;;;5.32;;
8564;SDS011;4320;51.498;6.556;2023-02-04T07:12:26;26.15;;;6.75;;
8564;SDS011;4320;51.498;6.556;2023-02-04T07:14:52;18.75;;;5.53;;
8564;SDS011;4320;51.498;6.556;2023-02-04T07:17:18;31.75;;;6.60;;
8564;SDS011;4320;51.498;6.556;2023-02-04T07:19:43;19.70;;;5.43;;
8564;SDS011;4320;51.498;6.556;2023-02-04T07:22:09;20.55;;;6.07;;
8564;SDS011;4320;51.498;6.556;2023-02-04T07:24:35;27.95;;;5.60;;
8564;SDS011;4320;51.498;6.556;2023-02-04T07:27:00;20.88;;;5.97;;
8564;SDS011;4320;51.498;6.556;2023-02-04T07:29:26;24.42;;;5.68;;
8564;SDS011;4320;51.498;6.556;2023-02-04T07:31:52;24.10;;;5.97;;
8564;SDS011;4320;51.498;6.556;2023-02-04T07:34:18;26.20;;;5.55;;
8564;SDS011;4320;51.498;6.556;2023-02-04T07:36:44;23.80;;;6.32;;
8564;SDS011;4320;51.498;6.556;2023-02-04T07:39:10;21.05;;;5.45;;
8564;SDS011;4320;51.498;6.556;2023-02-04T07:41:35;21.65;;;6.28;;
8564;SDS011;4320;51.498;6.556;2023-02-04T07:44:02;16.52;;;5.45;;
8564;SDS011;4320;51.498;6.556;2023-02-04T07:46:28;23.42;;;6.03;;
8564;SDS011;4320;51.498;6.556;2023-02-04T07:48:54;23.45;;;5.43;;
8564;SDS011;4320;51.498;6.556;2023-02-04T07:51:20;21.60;;;6.65;;
8564;SDS011;4320;51.498;6.556;2023-02-04T07:53:46;29.80;;;7.13;;
8564;SDS011;4320;51.498;6.556;2023-02-04T07:56:11;34.40;;;6.63;;
8564;SDS011;4320;51.498;6.556;2023-02-04T07:58:37;21.83;;;6.55;;
8564;SDS011;4320;51.498;6.556;2023-02-04T08:01:03;17.15;;;5.97;;
8564;SDS011;4320;51.498;6.556;2023-02-04T08:03:28;26.90;;;7.20;;
8564;SDS011;4320;51.498;6.556;2023-02-04T08:05:54;23.48;;;6.55;;
8564;SDS011;4320;51.498;6.556;2023-02-04T08:08:20;19.55;;;5.80;;
8564;SDS011;4320;51.498;6.556;2023-02-04T08:10:46;30.05;;;7.07;;
8564;SDS011;4320;51.498;6.556;2023-02-04T08:13:11;20.35;;;5.78;;
8564;SDS011;4320;51.498;6.556;2023-02-04T08:15:37;32.60;;;8.10;;
8564;SDS011;4320;51.498;6.556;2023-02-04T08:18:03;19.05;;;6.28;;
8564;SDS011;4320;51.498;6.556;2023-02-04T08:20:29;26.90;;;7.05;;
8564;SDS011;4320;51.498;6.556;2023-02-04T08:22:55;28.77;;;7.53;;
8564;SDS011;4320;51.498;6.556;2023-02-04T08:25:21;34.83;;;6.93;;
8564;SDS011;4320;51.498;6.556;2023-02-04T08:27:47;21.67;;;6.35;;
8564;SDS011;4320;51.498;6.556;2023-02-04T08:30:12;27.65;;;6.78;;
8564;SDS011;4320;51.498;6.556;2023-02-04T08:32:38;30.73;;;7.10;;
8564;SDS011;4320;51.498;6.556;2023-02-04T08:35:04;31.63;;;6.65;;
8564;SDS011;4320;51.498;6.556;2023-02-04T08:37:31;23.58;;;6.85;;
8564;SDS011;4320;51.498;6.556;2023-02-04T08:39:56;26.52;;;7.05;;
8564;SDS011;4320;51.498;6.556;2023-02-04T08:42:22;24.83;;;7.30;;
8564;SDS011;4320;51.498;6.556;2023-02-04T08:44:48;26.13;;;7.10;;
8564;SDS011;4320;51.498;6.556;2023-02-04T08:47:13;23.27;;;5.75;;
8564;SDS011;4320;51.498;6.556;2023-02-04T08:49:39;25.15;;;5.60;;
8564;SDS011;4320;51.498;6.556;2023-02-04T08:52:05;20.95;;;4.85;;
8564;SDS011;4320;51.498;6.556;2023-02-04T08:54:31;25.88;;;5.63;;
8564;SDS011;4320;51.498;6.556;2023-02-04T08:56:58;22.50;;;5.85;;
8564;SDS011;4320;51.498;6.556;2023-02-04T08:59:24;21.73;;;5.97;;
8564;SDS011;4320;51.498;6.556;2023-02-04T09:01:50;30.25;;;5.72;;
8564;SDS011;4320;51.498;6.556;2023-02-04T09:04:20;25.35;;;8.02;;
8564;SDS011;4320;51.498;6.556;2023-02-04T09:06:48;25.92;;;8.23;;
8564;SDS011;4320;51.498;6.556;2023-02-04T09:09:14;20.95;;;7.05;;
8564;SDS011;4320;51.498;6.556;2023-02-04T09:11:40;27.50;;;8.90;;
8564;SDS011;4320;51.498;6.556;2023-02-04T09:14:07;43.83;;;15.05;;
8564;SDS011;4320;51.498;6.556;2023-02-04T09:16:32;27.02;;;8.40;;
8564;SDS011;4320;51.498;6.556;2023-02-04T09:18:58;28.75;;;6.80;;
8564;SDS011;4320;51.498;6.556;2023-02-04T09:21:25;25.27;;;5.85;;
8564;SDS011;4320;51.498;6.556;2023-02-04T09:23:52;27.20;;;6.55;;
8564;SDS011;4320;51.498;6.556;2023-02-04T09:26:17;19.20;;;5.55;;
8564;SDS011;4320;51.498;6.556;2023-02-04T09:28:43;24.05;;;6.55;;
8564;SDS011;4320;51.498;6.556;2023-02-04T09:31:09;26.40;;;7.13;;
8564;SDS011;4320;51.498;6.556;2023-02-04T09:33:35;24.98;;;8.48;;
8564;SDS011;4320;51.498;6.556;2023-02-04T09:36:01;24.30;;;6.72;;
8564;SDS011;4320;51.498;6.556;2023-02-04T09:38:27;22.63;;;6.57;;
8564;SDS011;4320;51.498;6.556;2023-02-04T09:40:53;30.23;;;8.07;;
8564;SDS011;4320;51.498;6.556;2023-02-04T09:43:26;25.48;;;8.43;;
8564;SDS011;4320;51.498;6.556;2023-02-04T09:45:54;25.75;;;7.05;;
8564;SDS011;4320;51.498;6.556;2023-02-04T09:48:21;28.88;;;6.75;;
8564;SDS011;4320;51.498;6.556;2023-02-04T09:50:48;25.48;;;8.02;;
8564;SDS011;4320;51.498;6.556;2023-02-04T09:53:19;37.67;;;9.13;;
8564;SDS011;4320;51.498;6.556;2023-02-04T09:55:48;22.05;;;6.43;;
8564;SDS011;4320;51.498;6.556;2023-02-04T09:58:19;25.45;;;6.65;;
8564;SDS011;4320;51.498;6.556;2023-02-04T10:00:47;22.10;;;6.75;;
8564;SDS011;4320;51.498;6.556;2023-02-04T10:03:22;27.67;;;7.22;;
8564;SDS011;4320;51.498;6.556;2023-02-04T10:05:48;23.58;;;6.68;;
8564;SDS011;4320;51.498;6.556;2023-02-04T10:08:18;24.50;;;7.68;;
8564;SDS011;4320;51.498;6.556;2023-02-04T10:10:45;23.42;;;6.72;;
8564;SDS011;4320;51.498;6.556;2023-02-04T10:13:15;25.05;;;6.63;;
8564;SDS011;4320;51.498;6.556;2023-02-04T10:15:44;28.55;;;7.07;;
8564;SDS011;4320;51.498;6.556;2023-02-04T10:18:11;25.20;;;6.57;;
8564;SDS011;4320;51.498;6.556;2023-02-04T10:21:21;24.38;;;6.88;;
8564;SDS011;4320;51.498;6.556;2023-02-04T10:23:56;28.45;;;7.78;;
8564;SDS011;4320;51.498;6.556;2023-02-04T10:26:27;34.88;;;10.95;;
8564;SDS011;4320;51.498;6.556;2023-02-04T10:29:01;20.70;;;6.72;;
8564;SDS011;4320;51.498;6.556;2023-02-04T10:31:36;21.20;;;6.72;;
8564;SDS011;4320;51.498;6.556;2023-02-04T10:36:34;43.47;;;13.60;;
8564;SDS011;4320;51.498;6.556;2023-02-04T10:39:03;70.10;;;24.77;;
8564;SDS011;4320;51.498;6.556;2023-02-04T10:41:43;23.98;;;7.97;;
8564;SDS011;4320;51.498;6.556;2023-02-04T10:44:11;32.22;;;7.05;;
8564;SDS011;4320;51.498;6.556;2023-02-04T10:46:40;21.17;;;8.05;;
8564;SDS011;4320;51.498;6.556;2023-02-04T10:49:22;21.58;;;6.05;;
8564;SDS011;4320;51.498;6.556;2023-02-04T10:51:49;30.00;;;7.07;;
8564;SDS011;4320;51.498;6.556;2023-02-04T10:54:17;26.10;;;7.90;;
8564;SDS011;4320;51.498;6.556;2023-02-04T10:59:42;29.58;;;7.18;;
8564;SDS011;4320;51.498;6.556;2023-02-04T11:04:57;23.85;;;6.05;;
8564;SDS011;4320;51.498;6.556;2023-02-04T11:07:23;25.30;;;6.18;;
8564;SDS011;4320;51.498;6.556;2023-02-04T11:09:48;32.70;;;10.02;;
8564;SDS011;4320;51.498;6.556;2023-02-04T11:12:21;29.15;;;8.45;;
8564;SDS011;4320;51.498;6.556;2023-02-04T11:15:05;25.25;;;7.13;;
8564;SDS011;4320;51.498;6.556;2023-02-04T11:17:33;32.17;;;9.73;;
8564;SDS011;4320;51.498;6.556;2023-02-04T11:19:59;30.13;;;6.65;;
8564;SDS011;4320;51.498;6.556;2023-02-04T11:27:55;29.70;;;5.85;;
8564;SDS011;4320;51.498;6.556;2023-02-04T11:30:21;31.63;;;8.10;;
8564;SDS011;4320;51.498;6.556;2023-02-04T11:33:01;25.05;;;7.32;;
8564;SDS011;4320;51.498;6.556;2023-02-04T11:35:28;39.97;;;9.52;;
8564;SDS011;4320;51.498;6.556;2023-02-04T11:37:54;34.60;;;10.85;;
8564;SDS011;4320;51.498;6.556;2023-02-04T11:43:10;33.80;;;9.57;;
8564;SDS011;4320;51.498;6.556;2023-02-04T11:45:38;25.77;;;6.85;;
8564;SDS011;4320;51.498;6.556;2023-02-04T11:48:15;30.77;;;6.65;;
8564;SDS011;4320;51.498;6.556;2023-02-04T11:50:53;29.45;;;7.05;;
8564;SDS011;4320;51.498;6.556;2023-02-04T11:53:19;24.85;;;6.05;;
8564;SDS011;4320;51.498;6.556;2023-02-04T11:55:49;31.67;;;7.13;;
8564;SDS011;4320;51.498;6.556;2023-02-04T11:58:16;22.88;;;5.55;;
8564;SDS011;4320;51.498;6.556;2023-02-04T12:00:42;24.17;;;6.40;;
8564;SDS011;4320;51.498;6.556;2023-02-04T12:03:25;26.67;;;6.35;;
8564;SDS011;4320;51.498;6.556;2023-02-04T12:05:53;25.70;;;6.53;;
8564;SDS011;4320;51.498;6.556;2023-02-04T12:13:23;27.83;;;5.93;;
8564;SDS011;4320;51.498;6.556;2023-02-04T12:16:00;25.25;;;5.97;;
8564;SDS011;4320;51.498;6.556;2023-02-04T12:18:31;25.85;;;9.43;;
8564;SDS011;4320;51.498;6.556;2023-02-04T12:20:58;23.17;;;7.30;;
8564;SDS011;4320;51.498;6.556;2023-02-04T12:23:25;27.23;;;7.93;;
8564;SDS011;4320;51.498;6.556;2023-02-04T12:25:52;27.15;;;8.90;;
8564;SDS011;4320;51.498;6.556;2023-02-04T12:28:18;25.02;;;5.93;;
8564;SDS011;4320;51.498;6.556;2023-02-04T12:30:44;29.17;;;6.75;;
8564;SDS011;4320;51.498;6.556;2023-02-04T12:33:10;23.25;;;6.05;;
8564;SDS011;4320;51.498;6.556;2023-02-04T12:35:36;26.63;;;6.43;;
8564;SDS011;4320;51.498;6.556;2023-02-04T12:38:02;24.50;;;5.78;;
8564;SDS011;4320;51.498;6.556;2023-02-04T12:40:28;23.23;;;5.68;;
8564;SDS011;4320;51.498;6.556;2023-02-04T12:42:53;26.55;;;6.38;;
8564;SDS011;4320;51.498;6.556;2023-02-04T12:45:19;27.55;;;6.30;;
8564;SDS011;4320;51.498;6.556;2023-02-04T12:47:45;30.55;;;6.03;;
8564;SDS011;4320;51.498;6.556;2023-02-04T12:50:12;24.60;;;5.50;;
8564;SDS011;4320;51.498;6.556;2023-02-04T12:52:39;23.67;;;6.63;;
8564;SDS011;4320;51.498;6.556;2023-02-04T12:55:06;31.38;;;6.35;;
8564;SDS011;4320;51.498;6.556;2023-02-04T12:57:33;22.27;;;5.65;;
8564;SDS011;4320;51.498;6.556;2023-02-04T12:59:59;26.77;;;6.15;;
8564;SDS011;4320;51.498;6.556;2023-02-04T13:02:26;25.00;;;5.63;;
8564;SDS011;4320;51.498;6.556;2023-02-04T13:04:53;26.40;;;5.80;;
8564;SDS011;4320;51.498;6.556;2023-02-04T13:07:18;28.48;;;5.43;;
8564;SDS011;4320;51.498;6.556;2023-02-04T13:09:45;26.05;;;5.75;;
8564;SDS011;4320;51.498;6.556;2023-02-04T13:12:12;23.40;;;6.25;;
8564;SDS011;4320;51.498;6.556;2023-02-04T13:14:38;23.45;;;5.45;;
8564;SDS011;4320;51.498;6.556;2023-02-04T13:17:05;20.08;;;6.47;;
8564;SDS011;4320;51.498;6.556;2023-02-04T13:19:31;29.98;;;5.82;;
8564;SDS011;4320;51.498;6.556;2023-02-04T13:21:57;27.85;;;5.90;;
8564;SDS011;4320;51.498;6.556;2023-02-04T13:24:23;19.55;;;5.45;;
8564;SDS011;4320;51.498;6.556;2023-02-04T13:26:49;19.67;;;5.25;;
8564;SDS011;4320;51.498;6.556;2023-02-04T13:29:15;17.20;;;5.57;;
8564;SDS011;4320;51.498;6.556;2023-02-04T13:31:41;32.45;;;10.57;;
8564;SDS011;4320;51.498;6.556;2023-02-04T13:34:07;26.30;;;7.43;;
8564;SDS011;4320;51.498;6.556;2023-02-04T13:36:33;21.35;;;6.20;;
8564;SDS011;4320;51.498;6.556;2023-02-04T13:38:58;18.77;;;4.80;;
8564;SDS011;4320;51.498;6.556;2023-02-04T13:41:25;19.27;;;5.43;;
8564;SDS011;4320;51.498;6.556;2023-02-04T13:43:51;23.95;;;4.60;;
8564;SDS011;4320;51.498;6.556;2023-02-04T13:46:17;24.52;;;7.72;;
8564;SDS011;4320;51.498;6.556;2023-02-04T13:48:42;23.90;;;6.20;;
8564;SDS011;4320;51.498;6.556;2023-02-04T13:51:08;21.52;;;4.90;;
8564;SDS011;4320;51.498;6.556;2023-02-04T13:53:33;16.63;;;4.60;;
8564;SDS011;4320;51.498;6.556;2023-02-04T13:55:59;17.80;;;4.60;;
8564;SDS011;4320;51.498;6.556;2023-02-04T13:58:25;23.85;;;4.90;;
8564;SDS011;4320;51.498;6.556;2023-02-04T14:00:52;19.70;;;5.72;;
8564;SDS011;4320;51.498;6.556;2023-02-04T14:03:22;24.30;;;5.75;;
8564;SDS011;4320;51.498;6.556;2023-02-04T14:05:51;24.70;;;4.85;;
8564;SDS011;4320;51.498;6.556;2023-02-04T14:08:17;28.48;;;5.47;;
8564;SDS011;4320;51.498;6.556;2023-02-04T14:10:43;22.20;;;4.57;;
8564;SDS011;4320;51.498;6.556;2023-02-04T14:13:09;15.00;;;4.05;;
8564;SDS011;4320;51.498;6.556;2023-02-04T14:15:35;19.50;;;4.43;;
8564;SDS011;4320;51.498;6.556;2023-02-04T14:18:05;19.75;;;4.60;;
8564;SDS011;4320;51.498;6.556;2023-02-04T14:20:31;22.23;;;5.57;;
8564;SDS011;4320;51.498;6.556;2023-02-04T14:22:57;18.92;;;5.03;;
8564;SDS011;4320;51.498;6.556;2023-02-04T14:25:23;26.67;;;4.80;;
8564;SDS011;4320;51.498;6.556;2023-02-04T14:27:49;20.85;;;5.03;;
8564;SDS011;4320;51.498;6.556;2023-02-04T14:30:16;28.10;;;5.28;;
8564;SDS011;4320;51.498;6.556;2023-02-04T14:32:41;23.38;;;5.07;;
8564;SDS011;4320;51.498;6.556;2023-02-04T14:35:07;18.00;;;4.65;;
8564;SDS011;4320;51.498;6.556;2023-02-04T14:37:33;15.82;;;4.32;;
8564;SDS011;4320;51.498;6.556;2023-02-04T14:39:58;26.38;;;5.70;;
8564;SDS011;4320;51.498;6.556;2023-02-04T14:42:24;21.35;;;4.95;;
8564;SDS011;4320;51.498;6.556;2023-02-04T14:44:49;20.98;;;5.22;;
8564;SDS011;4320;51.498;6.556;2023-02-04T14:47:15;28.90;;;4.78;;
8564;SDS011;4320;51.498;6.556;2023-02-04T14:49:40;20.98;;;5.05;;
8564;SDS011;4320;51.498;6.556;2023-02-04T14:52:06;15.82;;;3.97;;
8564;SDS011;4320;51.498;6.556;2023-02-04T14:54:32;22.75;;;5.10;;
8564;SDS011;4320;51.498;6.556;2023-02-04T14:56:57;20.23;;;5.05;;
8564;SDS011;4320;51.498;6.556;2023-02-04T14:59:23;30.13;;;6.55;;
8564;SDS011;4320;51.498;6.556;2023-02-04T15:01:49;24.88;;;5.80;;
8564;SDS011;4320;51.498;6.556;2023-02-04T15:04:14;26.73;;;5.63;;
8564;SDS011;4320;51.498;6.556;2023-02-04T15:06:41;28.63;;;5.15;;
8564;SDS011;4320;51.498;6.556;2023-02-04T15:09:07;25.35;;;5.50;;
8564;SDS011;4320;51.498;6.556;2023-02-04T15:11:33;34.15;;;6.05;;
8564;SDS011;4320;51.498;6.556;2023-02-04T15:13:58;25.85;;;6.40;;
8564;SDS011;4320;51.498;6.556;2023-02-04T15:16:24;30.80;;;5.82;;
8564;SDS011;4320;51.498;6.556;2023-02-04T15:18:50;21.60;;;6.13;;
8564;SDS011;4320;51.498;6.556;2023-02-04T15:21:15;27.80;;;5.72;;